createdAt,value
2023-05-20T00:02:09.115Z,102284.69
2023-05-20T00:05:11.352Z,102283.59
2023-05-20T00:08:12.712Z,102291.63
2023-05-20T00:11:14.235Z,102277.47
2023-05-20T00:14:15.732Z,102273.59
2023-05-20T00:17:17.325Z,102286.78
2023-05-20T00:20:19.461Z,102277.06
2023-05-20T00:23:20.835Z,102279.59
2023-05-20T00:26:22.481Z,102280.28
2023-05-20T00:29:23.997Z,102278.84
2023-05-20T00:32:25.467Z,102287.50
2023-05-20T00:35:28.159Z,102284.34
2023-05-20T00:38:29.606Z,102287.13
2023-05-20T00:41:31.953Z,102289.75
2023-05-20T00:44:33.439Z,102287.25
2023-05-20T00:47:36.616Z,102292.88
2023-05-20T00:50:39.369Z,102290.97
2023-05-20T00:53:41.691Z,102287.84
2023-05-20T00:56:43.273Z,102277.28
2023-05-20T00:59:45.004Z,102275.78
2023-05-20T01:02:46.474Z,102274.16
2023-05-20T01:05:49.868Z,102270.59
2023-05-20T01:08:51.263Z,102272.06
2023-05-20T01:11:59.044Z,102271.22
2023-05-20T01:15:06.933Z,102264.28
2023-05-20T01:18:09.920Z,102270.22
2023-05-20T01:21:15.169Z,102266.13
2023-05-20T01:24:17.185Z,102275.09
2023-05-20T01:27:20.157Z,102270.59
2023-05-20T01:30:22.509Z,102270.78
2023-05-20T01:33:25.745Z,102257.09
2023-05-20T01:36:28.259Z,102260.94
2023-05-20T01:39:31.614Z,102258.66
2023-05-20T01:42:34.750Z,102255.69
2023-05-20T01:45:37.445Z,102256.97
2023-05-20T01:48:38.992Z,102254.22
2023-05-20T01:51:40.621Z,102254.72
2023-05-20T01:54:42.597Z,102250.91
2023-05-20T01:57:44.105Z,102251.50
2023-05-20T02:00:45.479Z,102243.09
2023-05-20T02:03:46.854Z,102245.66
2023-05-20T02:06:48.614Z,102240.22
2023-05-20T02:09:50.620Z,102238.09
2023-05-20T02:12:52.116Z,102235.19
2023-05-20T02:15:53.547Z,102244.19
2023-05-20T02:18:55.222Z,102244.25
2023-05-20T02:21:56.739Z,102242.22
2023-05-20T02:24:58.706Z,102243.75
2023-05-20T02:28:00.227Z,102243.31
2023-05-20T02:31:01.522Z,102247.03
2023-05-20T02:34:03.653Z,102240.56
2023-05-20T02:37:05.146Z,102246.34
2023-05-20T02:40:09.540Z,102241.41
2023-05-20T02:43:11.065Z,102229.38
2023-05-20T02:46:12.696Z,102243.69
2023-05-20T02:49:14.225Z,102239.56
2023-05-20T02:52:15.731Z,102241.72
2023-05-20T02:55:18.023Z,102240.84
2023-05-20T02:58:25.665Z,102241.94
2023-05-20T03:01:28.417Z,102250.41
2023-05-20T03:04:31.010Z,102235.16
2023-05-20T03:07:35.667Z,102242.56
2023-05-20T03:10:38.298Z,102247.88
2023-05-20T03:13:39.703Z,102248.72
2023-05-20T03:16:41.081Z,102247.72
2023-05-20T03:19:42.635Z,102257.38
2023-05-20T03:22:44.021Z,102259.50
2023-05-20T03:25:46.205Z,102267.66
2023-05-20T03:28:47.601Z,102266.25
2023-05-20T03:31:48.980Z,102263.91
2023-05-20T03:34:50.510Z,102261.59
2023-05-20T03:37:52.469Z,102261.53
2023-05-20T03:40:54.659Z,102268.00
2023-05-20T03:43:56.199Z,102271.81
2023-05-20T03:46:57.670Z,102264.81
2023-05-20T03:49:59.239Z,102273.03
2023-05-20T03:53:00.712Z,102276.38
2023-05-20T03:56:02.982Z,102280.59
2023-05-20T03:59:05.136Z,102279.13
2023-05-20T04:02:06.461Z,102269.94
2023-05-20T04:05:09.982Z,102268.06
2023-05-20T04:08:12.821Z,102275.47
2023-05-20T04:11:14.985Z,102275.91
2023-05-20T04:14:16.410Z,102272.31
2023-05-20T04:17:17.900Z,102271.72
2023-05-20T04:20:19.744Z,102275.94
2023-05-20T04:23:21.055Z,102275.44
2023-05-20T04:26:23.191Z,102277.75
2023-05-20T04:29:24.909Z,102271.00
2023-05-20T04:32:26.502Z,102266.75
2023-05-20T04:35:28.806Z,102269.09
2023-05-20T04:38:31.649Z,102266.28
2023-05-20T04:41:34.723Z,102271.78
2023-05-20T04:44:36.238Z,102271.16
2023-05-20T04:47:38.145Z,102277.09
2023-05-20T04:50:41.253Z,102268.94
2023-05-20T04:53:44.668Z,102281.03
2023-05-20T04:56:48.276Z,102290.75
2023-05-20T04:59:49.603Z,102283.50
2023-05-20T05:02:50.967Z,102278.22
2023-05-20T05:05:55.896Z,102274.53
2023-05-20T05:08:57.264Z,102267.38
2023-05-20T05:11:59.349Z,102262.09
2023-05-20T05:15:00.673Z,102255.25
2023-05-20T05:18:02.194Z,102252.72
2023-05-20T05:21:04.984Z,102261.31
2023-05-20T05:24:06.782Z,102256.06
2023-05-20T05:27:08.960Z,102251.34
2023-05-20T05:30:10.962Z,102247.97
2023-05-20T05:33:14.310Z,102248.00
2023-05-20T05:36:15.793Z,102250.16
2023-05-20T05:39:17.098Z,102248.16
2023-05-20T05:42:19.189Z,102255.88
2023-05-20T05:45:20.515Z,102259.69
2023-05-20T05:48:22.440Z,102250.16
2023-05-20T05:51:24.938Z,102255.19
2023-05-20T05:54:26.438Z,102242.66
2023-05-20T05:57:28.533Z,102243.03
2023-05-20T06:00:29.936Z,102238.44
2023-05-20T06:03:31.393Z,102233.75
2023-05-20T06:06:33.487Z,102239.28
2023-05-20T06:09:34.895Z,102239.28
2023-05-20T06:12:37.031Z,102237.00
2023-05-20T06:15:39.865Z,102231.34
2023-05-20T06:18:41.389Z,102227.19
2023-05-20T06:21:42.864Z,102236.28
2023-05-20T06:24:44.210Z,102231.72
2023-05-20T06:27:46.255Z,102236.25
2023-05-20T06:30:47.648Z,102238.06
2023-05-20T06:33:49.017Z,102233.22
2023-05-20T06:36:50.511Z,102235.72
2023-05-20T06:39:53.114Z,102234.34
2023-05-20T06:42:55.276Z,102236.19
2023-05-20T06:45:56.675Z,102242.41
2023-05-20T06:48:58.769Z,102238.59
2023-05-20T06:52:00.422Z,102237.16
2023-05-20T06:55:02.327Z,102238.34
2023-05-20T06:58:05.073Z,102231.91
2023-05-20T07:01:06.903Z,102234.69
2023-05-20T07:04:08.564Z,102229.00
2023-05-20T07:07:10.564Z,102226.50
2023-05-20T07:10:12.649Z,102230.97
2023-05-20T07:13:15.528Z,102233.72
2023-05-20T07:16:17.579Z,102230.94
2023-05-20T07:19:19.524Z,102222.09
2023-05-20T07:22:21.503Z,102231.34
2023-05-20T07:25:23.190Z,102228.47
2023-05-20T07:28:25.412Z,102230.13
2023-05-20T07:31:27.003Z,102236.38
2023-05-20T07:34:28.673Z,102228.34
2023-05-20T07:37:30.444Z,102228.56
2023-05-20T07:40:32.761Z,102222.13
2023-05-20T07:43:36.923Z,102214.78
2023-05-20T07:46:42.012Z,102217.75
2023-05-20T07:49:46.892Z,102215.94
2023-05-20T07:52:56.383Z,102216.66
2023-05-20T07:55:59.771Z,102216.03
2023-05-20T07:59:04.437Z,102211.56
2023-05-20T08:02:07.916Z,102211.63
2023-05-20T08:05:11.443Z,102199.75
2023-05-20T08:08:14.237Z,102199.97
2023-05-20T08:11:17.164Z,102199.16
2023-05-20T08:14:21.258Z,102199.41
2023-05-20T08:17:24.147Z,102192.38
2023-05-20T08:20:27.865Z,102194.13
2023-05-20T08:23:31.291Z,102186.34
2023-05-20T08:26:35.549Z,102185.47
2023-05-20T08:29:39.656Z,102188.03
2023-05-20T08:32:42.780Z,102189.59
2023-05-20T08:35:46.363Z,102189.34
2023-05-20T08:38:49.299Z,102181.94
2023-05-20T08:41:52.366Z,102176.34
2023-05-20T08:44:57.543Z,102187.41
2023-05-20T08:48:01.009Z,102168.59
2023-05-20T08:51:05.018Z,102170.94
2023-05-20T08:54:09.839Z,102163.13
2023-05-20T08:57:13.944Z,102165.38
2023-05-20T09:00:20.292Z,102168.59
2023-05-20T09:03:24.352Z,102165.75
2023-05-20T09:06:27.316Z,102154.47
2023-05-20T09:09:30.887Z,102152.09
2023-05-20T09:12:33.859Z,102159.91
2023-05-20T09:15:39.213Z,102160.25
2023-05-20T09:18:43.424Z,102162.69
2023-05-20T09:21:48.068Z,102162.06
2023-05-20T09:24:52.125Z,102163.34
2023-05-20T09:27:54.976Z,102162.22
2023-05-20T09:31:01.004Z,102155.94
2023-05-20T09:34:04.783Z,102156.63
2023-05-20T09:37:08.543Z,102148.81
2023-05-20T09:40:15.281Z,102149.72
2023-05-20T09:43:18.641Z,102151.09
2023-05-20T09:46:22.954Z,102154.84
2023-05-20T09:49:27.197Z,102160.75
2023-05-20T09:52:31.120Z,102158.53
2023-05-20T09:55:34.777Z,102155.28
2023-05-20T09:58:38.033Z,102162.22
2023-05-20T10:01:42.324Z,102162.00
2023-05-20T10:04:50.232Z,102162.06
2023-05-20T10:08:22.985Z,102157.31
2023-05-20T10:11:34.514Z,102150.97
2023-05-20T10:14:49.615Z,102155.19
2023-05-20T10:18:02.625Z,102150.50
2023-05-20T10:21:17.020Z,102151.91
2023-05-20T10:24:31.310Z,102136.22
2023-05-20T10:27:44.115Z,102138.41
2023-05-20T10:30:51.254Z,102128.22
2023-05-20T10:33:56.071Z,102124.81
2023-05-20T10:37:00.351Z,102131.66
2023-05-20T10:40:11.209Z,102117.84
2023-05-20T10:43:15.460Z,102125.25
2023-05-20T10:46:32.519Z,102116.72
2023-05-20T10:49:42.271Z,102123.66
2023-05-20T10:52:45.201Z,102111.09
2023-05-20T10:55:53.408Z,102116.56
2023-05-20T10:58:56.317Z,102113.25
2023-05-20T11:01:59.235Z,102112.75
2023-05-20T11:05:04.553Z,102105.63
2023-05-20T11:08:20.536Z,102102.84
2023-05-20T11:11:31.464Z,102097.84
2023-05-20T11:14:34.277Z,102095.59
2023-05-20T11:17:37.182Z,102094.50
2023-05-20T11:20:41.335Z,102092.81
2023-05-20T11:23:44.206Z,102092.53
2023-05-20T11:26:47.134Z,102089.56
2023-05-20T11:29:51.949Z,102088.59
2023-05-20T11:32:59.318Z,102083.88
2023-05-20T11:36:06.535Z,102076.63
2023-05-20T11:39:14.853Z,102076.34
2023-05-20T11:42:17.745Z,102078.72
2023-05-20T11:45:20.482Z,102077.16
2023-05-20T11:48:23.646Z,102076.84
2023-05-20T11:51:28.698Z,102078.50
2023-05-20T11:54:36.496Z,102068.84
2023-05-20T11:57:39.279Z,102068.59
2023-05-20T12:00:51.332Z,102065.81
2023-05-20T12:03:58.182Z,102056.75
2023-05-20T12:07:04.050Z,102057.91
2023-05-20T12:10:08.294Z,102051.25
2023-05-20T12:13:13.407Z,102035.59
2023-05-20T12:16:16.328Z,102034.06
2023-05-20T12:19:19.152Z,102030.22
2023-05-20T12:22:23.427Z,102040.59
2023-05-20T12:25:26.484Z,102032.13
2023-05-20T12:28:29.296Z,102025.63
2023-05-20T12:31:34.618Z,102022.56
2023-05-20T12:34:37.915Z,102007.25
2023-05-20T12:37:42.890Z,102000.84
2023-05-20T12:40:45.810Z,102004.09
2023-05-20T12:43:48.678Z,101997.47
2023-05-20T12:46:51.720Z,101988.50
2023-05-20T12:49:54.636Z,101984.59
2023-05-20T12:52:58.762Z,101998.97
2023-05-20T12:56:01.781Z,101990.19
2023-05-20T12:59:04.564Z,101982.97
2023-05-20T13:02:07.427Z,101973.28
2023-05-20T13:05:11.309Z,101974.28
2023-05-20T13:08:15.583Z,101972.00
2023-05-20T13:11:18.459Z,101968.13
2023-05-20T13:14:21.714Z,101965.88
2023-05-20T13:17:24.528Z,101965.56
2023-05-20T13:20:27.490Z,101940.78
2023-05-20T13:23:31.726Z,101937.91
2023-05-20T13:26:34.480Z,101942.25
2023-05-20T13:29:37.205Z,101935.16
2023-05-20T13:32:40.015Z,101946.28
2023-05-20T13:35:42.841Z,101924.34
2023-05-20T13:38:47.017Z,101930.41
2023-05-20T13:41:49.842Z,101927.16
2023-05-20T13:44:52.721Z,101927.63
2023-05-20T13:47:55.711Z,101922.72
2023-05-20T13:50:58.592Z,101921.16
2023-05-20T13:54:02.705Z,101914.03
2023-05-20T13:57:08.160Z,101905.81
2023-05-20T14:00:12.020Z,101906.47
2023-05-20T14:03:15.043Z,101905.66
2023-05-20T14:06:18.940Z,101906.78
2023-05-20T14:09:23.416Z,101909.56
2023-05-20T14:12:26.354Z,101909.06
2023-05-20T14:15:30.641Z,101908.75
2023-05-20T14:18:33.389Z,101892.44
2023-05-20T14:21:36.311Z,101908.59
2023-05-20T14:24:40.434Z,101895.84
2023-05-20T14:27:43.322Z,101891.56
2023-05-20T14:30:46.292Z,101890.03
2023-05-20T14:33:49.308Z,101887.75
2023-05-20T14:36:52.377Z,101877.50
2023-05-20T14:39:56.758Z,101873.34
2023-05-20T14:42:59.728Z,101875.84
2023-05-20T14:46:03.944Z,101876.06
2023-05-20T14:49:06.742Z,101875.03
2023-05-20T14:52:09.669Z,101882.72
2023-05-20T14:55:13.892Z,101872.41
2023-05-20T14:58:16.681Z,101873.81
2023-05-20T15:01:19.654Z,101884.44
2023-05-20T15:04:22.453Z,101861.81
2023-05-20T15:07:25.196Z,101853.22
2023-05-20T15:10:29.454Z,101871.78
2023-05-20T15:13:32.204Z,101857.38
2023-05-20T15:16:35.171Z,101851.34
2023-05-20T15:19:41.243Z,101846.81
2023-05-20T15:22:45.889Z,101847.94
2023-05-20T15:25:50.544Z,101827.88
2023-05-20T15:28:53.522Z,101840.63
2023-05-20T15:31:56.435Z,101838.75
2023-05-20T15:34:59.990Z,101840.56
2023-05-20T15:38:02.820Z,101839.25
2023-05-20T15:41:08.096Z,101834.66
2023-05-20T15:44:10.876Z,101840.41
2023-05-20T15:47:13.683Z,101832.53
2023-05-20T15:50:17.212Z,101828.81
2023-05-20T15:53:20.218Z,101818.13
2023-05-20T15:56:24.539Z,101816.47
2023-05-20T15:59:27.317Z,101814.13
2023-05-20T16:02:32.859Z,101818.72
2023-05-20T16:05:39.081Z,101807.41
2023-05-20T16:08:41.976Z,101808.84
2023-05-20T16:11:46.200Z,101818.72
2023-05-20T16:14:49.020Z,101805.38
2023-05-20T16:17:51.869Z,101801.88
2023-05-20T16:20:54.640Z,101796.06
2023-05-20T16:27:19.262Z,101792.63
2023-05-20T16:30:22.175Z,101781.38
2023-05-20T16:33:25.140Z,101782.38
2023-05-20T16:36:28.042Z,101779.34
2023-05-20T16:39:30.784Z,101776.03
2023-05-20T16:42:35.051Z,101783.19
2023-05-20T16:45:37.927Z,101784.72
2023-05-20T16:48:41.191Z,101780.28
2023-05-20T16:51:44.139Z,101790.41
2023-05-20T16:54:47.084Z,101783.06
2023-05-20T16:57:51.492Z,101779.50
2023-05-20T17:00:55.060Z,101773.03
2023-05-20T17:03:58.003Z,101773.97
2023-05-20T17:07:01.654Z,101769.72
2023-05-20T17:10:04.849Z,101770.19
2023-05-20T17:13:09.131Z,101762.13
2023-05-20T17:16:12.950Z,101767.88
2023-05-20T17:22:20.822Z,101769.13
2023-05-20T17:25:23.585Z,101766.56
2023-05-20T17:28:27.812Z,101752.91
2023-05-20T17:31:30.589Z,101755.84
2023-05-20T17:34:33.483Z,101756.63
2023-05-20T17:37:36.858Z,101757.00
2023-05-20T17:40:39.662Z,101752.75
2023-05-20T17:43:43.836Z,101759.31
2023-05-20T17:46:46.820Z,101754.22
2023-05-20T17:49:49.691Z,101759.59
2023-05-20T17:52:52.460Z,101759.31
2023-05-20T17:55:55.223Z,101762.72
2023-05-20T17:58:59.651Z,101759.41
2023-05-20T18:02:02.513Z,101752.75
2023-05-20T18:05:06.668Z,101755.03
2023-05-20T18:08:09.464Z,101748.66
2023-05-20T18:11:12.247Z,101752.84
2023-05-20T18:14:18.748Z,101753.13
2023-05-20T18:17:21.589Z,101756.47
2023-05-20T18:20:24.521Z,101761.72
2023-05-20T18:23:27.458Z,101759.31
2023-05-20T18:26:30.311Z,101760.75
2023-05-20T18:29:34.554Z,101756.88
2023-05-20T18:32:38.793Z,101748.84
2023-05-20T18:35:41.803Z,101746.69
2023-05-20T18:38:45.094Z,101749.16
2023-05-20T18:41:48.190Z,101748.06
2023-05-20T18:44:52.484Z,101753.34
2023-05-20T18:47:57.527Z,101745.06
2023-05-20T18:51:00.513Z,101743.72
2023-05-20T18:54:03.398Z,101750.06
2023-05-20T18:57:07.997Z,101758.19
2023-05-20T19:00:13.480Z,101748.75
2023-05-20T19:03:17.115Z,101743.44
2023-05-20T19:06:19.963Z,101752.34
2023-05-20T19:09:22.985Z,101744.88
2023-05-20T19:12:26.137Z,101754.88
2023-05-20T19:15:31.206Z,101751.78
2023-05-20T19:18:33.959Z,101760.69
2023-05-20T19:21:39.378Z,101757.34
2023-05-20T19:24:42.243Z,101754.56
2023-05-20T19:27:45.031Z,101754.59
2023-05-20T19:30:49.855Z,101766.81
2023-05-20T19:33:52.753Z,101762.91
2023-05-20T19:36:56.785Z,101763.72
2023-05-20T19:39:59.681Z,101769.56
2023-05-20T19:43:02.508Z,101766.53
2023-05-20T19:46:07.582Z,101771.53
2023-05-20T19:49:10.513Z,101772.38
2023-05-20T19:52:13.269Z,101777.09
2023-05-20T19:55:16.431Z,101775.97
2023-05-20T19:58:19.228Z,101778.22
2023-05-20T20:01:23.386Z,101783.19
2023-05-20T20:04:26.103Z,101783.75
2023-05-20T20:07:29.033Z,101781.56
2023-05-20T20:10:31.811Z,101779.63
2023-05-20T20:13:34.559Z,101785.16
2023-05-20T20:16:38.905Z,101785.19
2023-05-20T20:19:42.189Z,101778.78
2023-05-20T20:22:45.600Z,101778.22
2023-05-20T20:25:50.532Z,101779.59
2023-05-20T20:28:53.633Z,101777.69
2023-05-20T20:31:59.233Z,101778.78
2023-05-20T20:35:02.155Z,101768.78
2023-05-20T20:38:09.629Z,101772.97
2023-05-20T20:41:12.467Z,101767.13
2023-05-20T20:44:18.704Z,101765.19
2023-05-20T20:47:23.634Z,101765.47
2023-05-20T20:50:26.549Z,101765.47
2023-05-20T20:53:29.263Z,101766.31
2023-05-20T20:56:36.718Z,101772.97
2023-05-20T20:59:39.903Z,101768.25
2023-05-20T21:02:44.549Z,101767.69
2023-05-20T21:05:48.629Z,101775.19
2023-05-20T21:08:53.073Z,101769.09
2023-05-20T21:11:57.300Z,101767.69
2023-05-20T21:15:00.402Z,101762.44
2023-05-20T21:18:04.915Z,101754.91
2023-05-20T21:21:12.132Z,101741.84
2023-05-20T21:24:14.847Z,101744.38
2023-05-20T21:27:17.850Z,101738.50
2023-05-20T21:30:20.627Z,101743.78
2023-05-20T21:33:25.235Z,101730.19
2023-05-20T21:36:28.122Z,101729.94
2023-05-20T21:39:30.849Z,101733.78
2023-05-20T21:42:34.125Z,101733.22
2023-05-20T21:45:37.008Z,101720.75
2023-05-20T21:48:41.552Z,101718.25
2023-05-20T21:51:44.341Z,101727.13
2023-05-20T21:54:47.228Z,101724.63
2023-05-20T21:57:50.150Z,101727.13
2023-05-20T22:00:53.273Z,101725.47
2023-05-20T22:03:57.628Z,101727.97
2023-05-20T22:07:01.921Z,101715.47
2023-05-20T22:10:05.317Z,101715.75
2023-05-20T22:13:10.844Z,101716.84
2023-05-20T22:16:14.396Z,101722.13
2023-05-20T22:19:19.048Z,101715.75
2023-05-20T22:22:21.929Z,101719.63
2023-05-20T22:25:24.811Z,101708.25
2023-05-20T22:28:27.597Z,101719.06
2023-05-20T22:31:30.610Z,101711.59
2023-05-20T22:34:34.756Z,101715.47
2023-05-20T22:37:37.652Z,101710.44
2023-05-20T22:40:43.273Z,101709.94
2023-05-20T22:43:46.098Z,101708.78
2023-05-20T22:46:49.030Z,101703.25
2023-05-20T22:49:53.164Z,101707.94
2023-05-20T22:52:56.018Z,101705.44
2023-05-20T22:55:59.957Z,101701.84
2023-05-20T22:59:03.154Z,101697.41
2023-05-20T23:02:06.873Z,101697.38
2023-05-20T23:05:11.844Z,101679.63
2023-05-20T23:08:14.754Z,101677.97
2023-05-20T23:11:17.769Z,101678.84
2023-05-20T23:14:21.142Z,101675.47
2023-05-20T23:17:24.030Z,101671.63
2023-05-20T23:20:29.364Z,101673.59
2023-05-20T23:23:32.437Z,101673.31
2023-05-20T23:26:37.804Z,101667.75
2023-05-20T23:29:40.813Z,101663.59
2023-05-20T23:32:43.748Z,101664.69
2023-05-20T23:35:48.052Z,101663.31
2023-05-20T23:38:51.277Z,101664.16
2023-05-20T23:41:54.203Z,101665.53
2023-05-20T23:44:56.935Z,101651.16
2023-05-20T23:48:01.334Z,101659.16
2023-05-20T23:51:07.118Z,101656.94
2023-05-20T23:54:09.889Z,101651.94
2023-05-20T23:57:12.915Z,101649.41
